createdAt,value
2022-11-25T00:01:36.571Z,99336.53
2022-11-25T00:04:05.339Z,99342.09
2022-11-25T00:06:35.495Z,99353.88
2022-11-25T00:09:06.662Z,99347.34
2022-11-25T00:11:39.429Z,99362.25
2022-11-25T00:14:09.006Z,99359.50
2022-11-25T00:16:37.641Z,99370.44
2022-11-25T00:19:06.241Z,99366.53
2022-11-25T00:21:35.917Z,99384.28
2022-11-25T00:24:06.942Z,99390.38
2022-11-25T00:26:38.039Z,99384.75
2022-11-25T00:29:09.212Z,99393.06
2022-11-25T00:31:39.992Z,99400.25
2022-11-25T00:34:09.501Z,99403.06
2022-11-25T00:36:40.320Z,99406.91
2022-11-25T00:39:12.089Z,99413.00
2022-11-25T00:42:03.010Z,99415.50
2022-11-25T00:44:38.296Z,99425.38
2022-11-25T00:47:10.834Z,99430.41
2022-11-25T00:49:40.840Z,99442.31
2022-11-25T00:52:11.230Z,99443.88
2022-11-25T00:54:39.734Z,99445.03
2022-11-25T00:57:09.789Z,99459.63
2022-11-25T00:59:38.331Z,99466.28
2022-11-25T01:02:06.929Z,99469.97
2022-11-25T01:04:35.819Z,99467.03
2022-11-25T01:07:05.402Z,99475.00
2022-11-25T01:09:34.299Z,99486.56
2022-11-25T01:12:03.064Z,99482.03
2022-11-25T01:14:34.196Z,99497.31
2022-11-25T01:17:03.399Z,99502.28
2022-11-25T01:19:31.952Z,99511.00
2022-11-25T01:22:00.533Z,99519.22
2022-11-25T01:24:29.169Z,99530.56
2022-11-25T01:26:57.591Z,99521.25
2022-11-25T01:29:26.302Z,99529.59
2022-11-25T01:31:58.068Z,99542.59
2022-11-25T01:34:30.131Z,99546.88
2022-11-25T01:36:58.672Z,99567.75
2022-11-25T01:39:32.396Z,99568.72
2022-11-25T01:42:02.291Z,99573.97
2022-11-25T01:44:33.036Z,99592.19
2022-11-25T01:47:14.407Z,99578.50
2022-11-25T01:49:47.785Z,99597.56
2022-11-25T01:52:23.063Z,99599.22
2022-11-25T01:54:55.618Z,99601.25
2022-11-25T01:57:29.969Z,99594.34
2022-11-25T02:00:02.261Z,99609.13
2022-11-25T02:02:33.712Z,99604.22
2022-11-25T02:05:04.168Z,99618.28
2022-11-25T02:07:36.615Z,99621.03
2022-11-25T02:10:08.909Z,99628.91
2022-11-25T02:12:41.059Z,99630.44
2022-11-25T02:15:10.657Z,99637.38
2022-11-25T02:17:42.135Z,99652.78
2022-11-25T02:20:14.699Z,99647.75
2022-11-25T02:22:54.709Z,99660.72
2022-11-25T02:25:27.780Z,99676.72
2022-11-25T02:28:00.218Z,99685.44
2022-11-25T02:30:28.854Z,99671.50
2022-11-25T02:32:59.600Z,99679.47
2022-11-25T02:35:35.261Z,99683.16
2022-11-25T02:38:11.259Z,99683.50
2022-11-25T02:40:47.480Z,99694.47
2022-11-25T02:43:17.379Z,99713.59
2022-11-25T02:46:01.231Z,99702.75
2022-11-25T02:49:00.923Z,99695.50
2022-11-25T02:51:23.326Z,99697.84
2022-11-25T02:53:54.033Z,99700.81
2022-11-25T02:56:27.899Z,99719.69
2022-11-25T02:58:56.394Z,99709.91
2022-11-25T03:01:26.814Z,99706.00
2022-11-25T03:03:55.420Z,99711.22
2022-11-25T03:06:24.579Z,99711.00
2022-11-25T03:08:53.039Z,99721.59
2022-11-25T03:11:21.639Z,99721.59
2022-11-25T03:13:51.602Z,99734.72
2022-11-25T03:16:20.387Z,99732.09
2022-11-25T03:18:49.012Z,99741.97
2022-11-25T03:21:17.629Z,99743.75
2022-11-25T03:23:46.470Z,99758.19
2022-11-25T03:26:14.994Z,99764.13
2022-11-25T03:28:43.520Z,99780.81
2022-11-25T03:31:13.881Z,99781.66
2022-11-25T03:33:42.500Z,99785.38
2022-11-25T03:36:11.298Z,99788.41
2022-11-25T03:38:40.098Z,99795.84
2022-11-25T03:41:08.510Z,99793.94
2022-11-25T03:43:37.098Z,99810.84
2022-11-25T03:46:05.789Z,99811.94
2022-11-25T03:48:35.939Z,99815.16
2022-11-25T03:51:04.559Z,99829.22
2022-11-25T03:53:33.123Z,99826.81
2022-11-25T03:56:01.950Z,99834.91
2022-11-25T03:58:30.521Z,99846.25
2022-11-25T04:01:02.607Z,99850.53
2022-11-25T04:03:31.702Z,99836.13
2022-11-25T04:06:01.839Z,99859.56
2022-11-25T04:08:30.579Z,99863.16
2022-11-25T04:10:59.322Z,99867.88
2022-11-25T04:13:26.829Z,99881.84
2022-11-25T04:15:55.424Z,99889.19
2022-11-25T04:18:24.046Z,99880.91
2022-11-25T04:20:52.680Z,99895.16
2022-11-25T04:23:23.128Z,99885.81
2022-11-25T04:25:52.611Z,99913.00
2022-11-25T04:28:21.228Z,99901.81
2022-11-25T04:30:49.882Z,99894.56
2022-11-25T04:33:18.518Z,99908.72
2022-11-25T04:35:47.028Z,99913.00
2022-11-25T04:38:16.061Z,99915.75
2022-11-25T04:40:46.080Z,99917.41
2022-11-25T04:43:14.879Z,99914.16
2022-11-25T04:46:12.593Z,99936.59
2022-11-25T04:48:31.960Z,99945.59
2022-11-25T04:51:00.308Z,99948.66
2022-11-25T04:53:28.913Z,99967.88
2022-11-25T04:55:59.041Z,99965.56
2022-11-25T04:58:44.931Z,99958.66
2022-11-25T05:01:13.651Z,99962.50
2022-11-25T05:03:48.111Z,99961.16
2022-11-25T05:06:18.301Z,99958.66
2022-11-25T05:08:49.810Z,99967.03
2022-11-25T05:11:19.842Z,99986.72
2022-11-25T05:13:48.309Z,99972.59
2022-11-25T05:16:17.040Z,99988.72
2022-11-25T05:18:45.643Z,99973.63
2022-11-25T05:21:14.160Z,99973.19
2022-11-25T05:23:42.679Z,99982.00
2022-11-25T05:26:11.190Z,99994.09
2022-11-25T05:28:41.161Z,99990.00
2022-11-25T05:31:09.968Z,99997.03
2022-11-25T05:33:38.303Z,100023.88
2022-11-25T05:36:07.412Z,100020.44
2022-11-25T05:38:35.862Z,100018.41
2022-11-25T05:41:06.577Z,100012.75
2022-11-25T05:43:35.408Z,100030.47
2022-11-25T05:46:08.677Z,100028.81
2022-11-25T05:48:37.272Z,100036.75
2022-11-25T05:51:06.718Z,100043.91
2022-11-25T05:53:35.467Z,100055.13
2022-11-25T05:56:06.180Z,100058.56
2022-11-25T05:58:35.312Z,100059.44
2022-11-25T06:01:09.990Z,100067.00
2022-11-25T06:03:39.507Z,100084.41
2022-11-25T06:06:09.141Z,100101.59
2022-11-25T06:08:40.451Z,100090.81
2022-11-25T06:11:09.971Z,100112.81
2022-11-25T06:13:38.741Z,100112.41
2022-11-25T06:16:14.300Z,100120.28
2022-11-25T06:18:42.948Z,100130.25
2022-11-25T06:21:13.186Z,100137.91
2022-11-25T06:23:41.697Z,100140.50
2022-11-25T06:26:14.010Z,100146.28
2022-11-25T06:28:42.898Z,100140.00
2022-11-25T06:31:14.621Z,100152.16
2022-11-25T06:33:43.840Z,100147.66
2022-11-25T06:36:17.517Z,100153.31
2022-11-25T06:38:46.177Z,100149.66
2022-11-25T06:41:15.050Z,100154.38
2022-11-25T06:43:43.659Z,100166.53
2022-11-25T06:46:18.552Z,100173.03
2022-11-25T06:48:54.632Z,100180.06
2022-11-25T06:51:24.883Z,100168.97
2022-11-25T06:53:53.991Z,100178.41
2022-11-25T06:56:24.818Z,100209.75
2022-11-25T06:58:54.893Z,100199.59
2022-11-25T07:01:27.523Z,100196.13
2022-11-25T07:03:58.216Z,100194.03
2022-11-25T07:06:26.800Z,100209.88
2022-11-25T07:08:55.503Z,100201.91
2022-11-25T07:11:26.379Z,100219.75
2022-11-25T07:13:56.540Z,100231.00
2022-11-25T07:16:28.063Z,100219.56
2022-11-25T07:18:56.948Z,100205.16
2022-11-25T07:21:27.383Z,100224.38
2022-11-25T07:23:55.920Z,100227.22
2022-11-25T07:26:27.269Z,100228.03
2022-11-25T07:29:00.377Z,100226.47
2022-11-25T07:31:34.081Z,100234.31
2022-11-25T07:34:05.095Z,100228.13
2022-11-25T07:36:35.590Z,100239.72
2022-11-25T07:39:07.855Z,100237.28
2022-11-25T07:41:37.141Z,100242.53
2022-11-25T07:44:09.174Z,100256.28
2022-11-25T07:46:40.881Z,100260.59
2022-11-25T07:49:12.990Z,100251.25
2022-11-25T07:51:44.061Z,100267.84
2022-11-25T07:54:14.253Z,100269.63
2022-11-25T07:56:44.879Z,100278.34
2022-11-25T07:59:16.213Z,100285.78
2022-11-25T08:01:46.739Z,100285.41
2022-11-25T08:04:19.995Z,100298.84
2022-11-25T08:06:52.451Z,100297.47
2022-11-25T08:09:22.820Z,100305.88
2022-11-25T08:11:52.001Z,100313.66
2022-11-25T08:14:21.513Z,100339.59
2022-11-25T08:16:52.748Z,100323.25
2022-11-25T08:19:21.331Z,100342.13
2022-11-25T08:21:50.922Z,100352.25
2022-11-25T08:24:22.337Z,100339.34
2022-11-25T08:26:58.961Z,100355.50
2022-11-25T08:29:28.281Z,100367.81
2022-11-25T08:31:58.844Z,100356.34
2022-11-25T08:34:27.420Z,100364.09
2022-11-25T08:36:56.140Z,100374.09
2022-11-25T08:42:13.771Z,100385.03
2022-11-25T08:44:43.270Z,100392.47
2022-11-25T08:47:13.165Z,100399.75
2022-11-25T08:49:42.098Z,100414.38
2022-11-25T08:52:11.540Z,100402.53
2022-11-25T08:54:40.168Z,100421.25
2022-11-25T08:57:09.757Z,100431.53
2022-11-25T08:59:39.738Z,100431.03
2022-11-25T09:02:10.995Z,100430.09
2022-11-25T09:04:41.197Z,100433.25
2022-11-25T09:07:09.448Z,100448.50
2022-11-25T09:09:38.633Z,100453.56
2022-11-25T09:12:07.376Z,100459.56
2022-11-25T09:14:35.669Z,100413.63
2022-11-25T09:17:04.270Z,100454.00
2022-11-25T09:19:32.648Z,100451.38
2022-11-25T09:22:02.763Z,100457.28
2022-11-25T09:24:31.396Z,100467.47
2022-11-25T09:26:59.699Z,100471.78
2022-11-25T09:29:31.086Z,100468.00
2022-11-25T09:31:59.928Z,100482.00
2022-11-25T09:34:28.244Z,100490.72
2022-11-25T09:36:57.247Z,100478.28
2022-11-25T09:39:31.526Z,100500.81
2022-11-25T09:42:29.488Z,100493.34
2022-11-25T09:45:31.887Z,100525.56
2022-11-25T09:48:42.255Z,100520.81
2022-11-25T09:51:20.518Z,100512.59
2022-11-25T09:53:54.325Z,100545.03
2022-11-25T09:56:38.004Z,100539.66
2022-11-25T09:59:12.267Z,100530.91
2022-11-25T10:01:48.976Z,100565.53
2022-11-25T10:04:23.987Z,100545.63
2022-11-25T10:07:01.363Z,100557.63
2022-11-25T10:09:34.080Z,100563.31
2022-11-25T10:12:14.139Z,100580.28
2022-11-25T10:14:48.059Z,100581.34
2022-11-25T10:17:28.061Z,100600.91
2022-11-25T10:20:03.454Z,100587.72
2022-11-25T10:22:35.527Z,100582.25
2022-11-25T10:25:16.132Z,100584.78
2022-11-25T10:27:51.370Z,100601.50
2022-11-25T10:30:25.415Z,100601.63
2022-11-25T10:33:02.510Z,100612.44
2022-11-25T10:35:36.787Z,100618.47
2022-11-25T10:38:12.279Z,100629.63
2022-11-25T10:40:46.509Z,100630.66
2022-11-25T10:43:16.812Z,100626.72
2022-11-25T10:45:54.166Z,100610.72
2022-11-25T10:48:44.542Z,100617.22
2022-11-25T10:51:30.023Z,100623.44
2022-11-25T10:54:14.108Z,100629.84
2022-11-25T10:56:49.573Z,100638.13
2022-11-25T10:59:30.772Z,100636.97
2022-11-25T11:02:20.902Z,100642.75
2022-11-25T11:05:19.343Z,100642.75
2022-11-25T11:07:48.567Z,100640.81
2022-11-25T11:10:21.719Z,100648.72
2022-11-25T11:12:59.063Z,100651.56
2022-11-25T11:15:32.761Z,100662.91
2022-11-25T11:18:15.935Z,100671.94
2022-11-25T11:20:48.857Z,100657.50
2022-11-25T11:23:17.959Z,100664.13
2022-11-25T11:25:57.990Z,100651.47
2022-11-25T11:28:31.320Z,100666.69
2022-11-25T11:31:04.174Z,100669.69
2022-11-25T11:33:39.440Z,100672.31
2022-11-25T11:36:38.814Z,100673.06
2022-11-25T11:39:27.433Z,100677.53
2022-11-25T11:42:04.039Z,100676.25
2022-11-25T11:44:42.907Z,100678.16
2022-11-25T11:47:22.938Z,100695.69
2022-11-25T11:50:16.219Z,100687.53
2022-11-25T11:52:56.757Z,100691.72
2022-11-25T11:55:40.311Z,100666.94
2022-11-25T11:58:22.955Z,100707.47
2022-11-25T12:01:02.923Z,100710.69
2022-11-25T12:03:40.150Z,100716.13
2022-11-25T12:06:13.966Z,100704.66
2022-11-25T12:08:51.966Z,100714.56
2022-11-25T12:11:27.083Z,100722.47
2022-11-25T12:14:01.317Z,100720.81
2022-11-25T12:16:36.769Z,100722.63
2022-11-25T12:19:16.028Z,100734.31
2022-11-25T12:21:53.816Z,100743.91
2022-11-25T12:24:28.852Z,100740.56
2022-11-25T12:27:02.918Z,100751.88
2022-11-25T12:29:41.072Z,100749.59
2022-11-25T12:32:32.253Z,100745.88
2022-11-25T12:35:09.209Z,100749.28
2022-11-25T12:37:46.721Z,100759.34
2022-11-25T12:40:18.542Z,100770.03
2022-11-25T12:42:50.097Z,100759.53
2022-11-25T12:45:24.173Z,100784.97
2022-11-25T12:47:53.789Z,100770.38
2022-11-25T12:50:36.597Z,100771.81
2022-11-25T12:53:13.946Z,100781.34
2022-11-25T12:55:42.845Z,100780.09
2022-11-25T12:58:42.769Z,100770.91
2022-11-25T13:01:44.383Z,100782.44
2022-11-25T13:04:46.596Z,100779.09
2022-11-25T13:07:37.315Z,100798.25
2022-11-25T13:10:28.263Z,100788.78
2022-11-25T13:13:12.402Z,100794.19
2022-11-25T13:15:47.556Z,100800.44
2022-11-25T13:18:19.358Z,100801.19
2022-11-25T13:20:51.173Z,100793.25
2022-11-25T13:23:49.311Z,100807.69
2022-11-25T13:26:52.037Z,100788.56
2022-11-25T13:30:00.401Z,100798.66
2022-11-25T13:32:34.530Z,100810.34
2022-11-25T13:35:47.552Z,100811.44
2022-11-25T13:39:12.785Z,100824.09
2022-11-25T13:41:49.719Z,100826.81
2022-11-25T13:44:28.480Z,100835.63
2022-11-25T13:47:02.088Z,100848.13
2022-11-25T13:49:36.778Z,100845.81
2022-11-25T13:52:27.982Z,100848.13
2022-11-25T13:54:58.798Z,100854.34
2022-11-25T13:57:31.138Z,100863.56
2022-11-25T14:00:02.998Z,100859.91
2022-11-25T14:02:35.794Z,100863.00
2022-11-25T14:05:46.952Z,100871.09
2022-11-25T14:08:35.775Z,100864.19
2022-11-25T14:11:37.518Z,100874.06
2022-11-25T14:14:22.867Z,100869.63
2022-11-25T14:17:08.275Z,100859.28
2022-11-25T14:19:58.300Z,100861.50
2022-11-25T14:22:52.343Z,100861.19
2022-11-25T14:25:26.806Z,100866.91
2022-11-25T14:28:07.426Z,100858.06
2022-11-25T14:30:37.542Z,100864.00
2022-11-25T14:33:11.035Z,100858.09
2022-11-25T14:35:45.744Z,100872.03
2022-11-25T14:38:19.319Z,100865.22
2022-11-25T14:40:55.125Z,100872.75
2022-11-25T14:43:27.480Z,100871.44
2022-11-25T14:46:13.141Z,100877.50
2022-11-25T14:48:43.877Z,100880.28
2022-11-25T14:51:15.458Z,100880.53
2022-11-25T14:53:48.486Z,100891.81
2022-11-25T14:56:22.577Z,100892.59
2022-11-25T14:58:54.647Z,100900.00
2022-11-25T15:01:27.927Z,100908.56
2022-11-25T15:04:05.130Z,100902.25
2022-11-25T15:06:39.451Z,100920.94
2022-11-25T15:09:21.656Z,100925.81
2022-11-25T15:11:54.191Z,100927.91
2022-11-25T15:14:28.362Z,100928.13
2022-11-25T15:16:58.989Z,100932.78
2022-11-25T15:19:34.153Z,100935.84
2022-11-25T15:22:26.945Z,100940.59
2022-11-25T15:25:07.752Z,100959.25
2022-11-25T15:27:46.216Z,100961.34
2022-11-25T15:30:25.545Z,100965.03
2022-11-25T15:32:55.743Z,100955.44
2022-11-25T15:35:28.270Z,100953.75
2022-11-25T15:37:57.100Z,100960.59
2022-11-25T15:40:34.010Z,100959.34
2022-11-25T15:43:09.712Z,100959.75
2022-11-25T15:45:47.381Z,100951.19
2022-11-25T15:48:22.246Z,100964.38
2022-11-25T15:50:50.946Z,100962.47
2022-11-25T15:53:30.243Z,100964.69
2022-11-25T15:56:03.296Z,100968.34
2022-11-25T15:58:32.056Z,100967.41
2022-11-25T16:01:09.294Z,100978.06
2022-11-25T16:03:38.006Z,100972.78
2022-11-25T16:06:22.498Z,100974.59
2022-11-25T16:08:56.293Z,100984.28
2022-11-25T16:11:31.606Z,101000.41
2022-11-25T16:14:19.580Z,100995.97
2022-11-25T16:16:50.484Z,101011.28
2022-11-25T16:19:22.378Z,101000.75
2022-11-25T16:22:02.629Z,101006.09
2022-11-25T16:24:48.228Z,101025.81
2022-11-25T16:27:20.419Z,101018.53
2022-11-25T16:29:58.007Z,101030.13
2022-11-25T16:32:30.381Z,101031.38
2022-11-25T16:35:13.152Z,101043.28
2022-11-25T16:37:47.092Z,101049.09
2022-11-25T16:40:20.571Z,101044.06
2022-11-25T16:42:51.080Z,101044.06
2022-11-25T16:45:22.887Z,101051.00
2022-11-25T16:47:53.202Z,101049.81
2022-11-25T16:50:24.115Z,101064.59
2022-11-25T16:52:52.608Z,101065.19
2022-11-25T16:55:21.089Z,101070.25
2022-11-25T16:57:49.598Z,101078.16
2022-11-25T17:00:19.207Z,101076.28
2022-11-25T17:02:50.369Z,101087.84
2022-11-25T17:05:23.335Z,101080.31
2022-11-25T17:07:55.417Z,101077.56
2022-11-25T17:10:24.513Z,101056.28
2022-11-25T17:12:53.218Z,101062.09
2022-11-25T17:15:26.456Z,101058.81
2022-11-25T17:17:55.505Z,101059.88
2022-11-25T17:20:26.315Z,101054.31
2022-11-25T17:22:56.177Z,101048.25
2022-11-25T17:25:28.983Z,101061.25
2022-11-25T17:28:03.206Z,101069.59
2022-11-25T17:30:32.810Z,101071.09
2022-11-25T17:33:05.641Z,101082.47
2022-11-25T17:35:36.383Z,101078.66
2022-11-25T17:38:14.126Z,101078.66
2022-11-25T17:40:44.808Z,101079.72
2022-11-25T17:43:17.580Z,101088.16
2022-11-25T17:45:47.629Z,101073.19
2022-11-25T17:48:19.116Z,101094.47
2022-11-25T17:50:49.474Z,101094.28
2022-11-25T17:53:18.411Z,101105.00
2022-11-25T17:55:46.840Z,101112.91
2022-11-25T17:58:19.312Z,101122.69
2022-11-25T18:00:49.229Z,101120.81
2022-11-25T18:03:18.470Z,101109.19
2022-11-25T18:05:49.546Z,101121.88
2022-11-25T18:08:19.001Z,101116.38
2022-11-25T18:10:48.501Z,101122.50
2022-11-25T18:13:18.042Z,101123.63
2022-11-25T18:15:47.358Z,101116.81
2022-11-25T18:18:21.682Z,101112.28
2022-11-25T18:20:51.880Z,101105.97
2022-11-25T18:23:21.357Z,101104.28
2022-11-25T18:25:50.267Z,101102.81
2022-11-25T18:28:23.146Z,101100.06
2022-11-25T18:30:54.883Z,101104.69
2022-11-25T18:33:23.291Z,101103.44
2022-11-25T18:35:53.218Z,101113.13
2022-11-25T18:38:22.632Z,101116.50
2022-11-25T18:40:54.152Z,101124.06
2022-11-25T18:43:26.417Z,101127.91
2022-11-25T18:45:55.936Z,101131.13
2022-11-25T18:48:26.522Z,101135.66
2022-11-25T18:50:57.651Z,101134.13
2022-11-25T18:53:27.132Z,101141.78
2022-11-25T18:55:56.022Z,101144.53
2022-11-25T18:58:27.240Z,101157.13
2022-11-25T19:01:05.174Z,101158.09
2022-11-25T19:03:37.018Z,101156.34
2022-11-25T19:06:07.951Z,101164.56
2022-11-25T19:08:36.435Z,101163.84
2022-11-25T19:11:05.190Z,101164.75
2022-11-25T19:13:39.818Z,101163.19
2022-11-25T19:16:12.692Z,101173.91
2022-11-25T19:18:42.457Z,101178.44
2022-11-25T19:21:17.483Z,101171.19
2022-11-25T19:23:46.593Z,101179.72
2022-11-25T19:26:17.891Z,101173.53
2022-11-25T19:28:49.864Z,101172.38
2022-11-25T19:31:20.767Z,101181.22
2022-11-25T19:33:52.931Z,101184.09
2022-11-25T19:36:26.796Z,101182.63
2022-11-25T19:38:57.169Z,101179.25
2022-11-25T19:41:27.539Z,101183.88
2022-11-25T19:43:55.934Z,101179.44
2022-11-25T19:46:30.139Z,101200.16
2022-11-25T19:49:07.949Z,101188.66
2022-11-25T19:51:38.289Z,101203.41
2022-11-25T19:54:11.108Z,101194.47
2022-11-25T19:56:40.894Z,101200.78
2022-11-25T19:59:11.020Z,101193.75
2022-11-25T20:01:42.747Z,101195.88
2022-11-25T20:04:21.040Z,101201.16
2022-11-25T20:06:51.983Z,101198.63
2022-11-25T20:09:20.522Z,101201.91
2022-11-25T20:11:54.710Z,101201.91
2022-11-25T20:14:23.631Z,101202.22
2022-11-25T20:16:52.450Z,101216.59
2022-11-25T20:19:21.685Z,101206.13
2022-11-25T20:21:59.885Z,101202.16
2022-11-25T20:24:30.818Z,101210.91
2022-11-25T20:27:00.711Z,101202.81
2022-11-25T20:29:30.844Z,101199.88
2022-11-25T20:32:02.131Z,101210.72
2022-11-25T20:34:37.349Z,101208.53
2022-11-25T20:37:16.464Z,101207.22
2022-11-25T20:39:46.170Z,101199.16
2022-11-25T20:42:18.176Z,101216.13
2022-11-25T20:44:46.770Z,101226.03
2022-11-25T20:47:17.890Z,101204.84
2022-11-25T20:49:50.249Z,101213.06
2022-11-25T20:52:25.741Z,101214.16
2022-11-25T20:54:54.524Z,101202.94
2022-11-25T20:57:25.141Z,101217.28
2022-11-25T20:59:54.629Z,101209.38
2022-11-25T21:02:23.383Z,101204.84
2022-11-25T21:04:52.970Z,101208.66
2022-11-25T21:07:22.907Z,101214.03
2022-11-25T21:09:51.820Z,101205.09
2022-11-25T21:12:20.336Z,101202.56
2022-11-25T21:14:50.389Z,101221.16
2022-11-25T21:17:20.990Z,101217.25
2022-11-25T21:19:52.297Z,101210.78
2022-11-25T21:22:23.410Z,101212.41
2022-11-25T21:24:51.806Z,101206.66
2022-11-25T21:27:21.761Z,101204.78
2022-11-25T21:29:50.334Z,101209.75
2022-11-25T21:32:23.962Z,101203.09
2022-11-25T21:34:52.625Z,101198.34
2022-11-25T21:37:31.736Z,101197.19
2022-11-25T21:40:01.840Z,101190.88
2022-11-25T21:42:33.804Z,101184.63
2022-11-25T21:45:03.031Z,101182.28
2022-11-25T21:47:33.739Z,101175.13
2022-11-25T21:50:04.148Z,101173.22
2022-11-25T21:52:35.554Z,101183.06
2022-11-25T21:55:06.036Z,101181.75
2022-11-25T21:57:41.160Z,101190.31
2022-11-25T22:00:24.891Z,101183.25
2022-11-25T22:02:55.272Z,101200.03
2022-11-25T22:05:26.997Z,101195.72
2022-11-25T22:07:59.925Z,101183.59
2022-11-25T22:10:30.590Z,101196.25
2022-11-25T22:13:00.037Z,101185.03
2022-11-25T22:15:32.403Z,101176.38
2022-11-25T22:18:02.545Z,101187.03
2022-11-25T22:20:36.287Z,101191.59
2022-11-25T22:23:17.010Z,101190.75
2022-11-25T22:25:49.904Z,101193.16
2022-11-25T22:28:27.307Z,101189.69
2022-11-25T22:30:58.581Z,101198.97
2022-11-25T22:33:32.333Z,101204.38
2022-11-25T22:36:08.741Z,101217.13
2022-11-25T22:38:50.063Z,101202.88
2022-11-25T22:41:19.844Z,101215.34
2022-11-25T22:43:53.512Z,101205.63
2022-11-25T22:46:24.149Z,101214.50
2022-11-25T22:48:53.634Z,101215.66
2022-11-25T22:51:28.860Z,101224.41
2022-11-25T22:53:59.825Z,101212.06
2022-11-25T22:56:28.557Z,101213.09
2022-11-25T22:59:00.392Z,101209.53
2022-11-25T23:01:32.250Z,101207.63
2022-11-25T23:04:01.077Z,101208.88
2022-11-25T23:06:35.300Z,101202.81
2022-11-25T23:09:05.547Z,101196.81
2022-11-25T23:11:39.705Z,101185.97
2022-11-25T23:14:09.639Z,101186.25
2022-11-25T23:16:38.421Z,101204.19
2022-11-25T23:19:16.027Z,101213.25
2022-11-25T23:21:47.111Z,101218.41
2022-11-25T23:24:20.244Z,101213.38
2022-11-25T23:26:51.103Z,101217.47
2022-11-25T23:29:19.918Z,101216.97
2022-11-25T23:31:48.676Z,101217.53
2022-11-25T23:34:17.206Z,101218.16
2022-11-25T23:36:49.375Z,101224.28
2022-11-25T23:39:23.054Z,101211.94
2022-11-25T23:41:55.488Z,101203.63
2022-11-25T23:44:26.349Z,101206.28
2022-11-25T23:46:57.315Z,101217.59
2022-11-25T23:49:37.172Z,101219.94
2022-11-25T23:52:09.751Z,101214.56
2022-11-25T23:54:42.930Z,101209.00
2022-11-25T23:57:18.139Z,101205.63
2022-11-25T23:59:47.522Z,101202.03
